createdAt,value
2022-10-19T00:01:24.520Z,2.40
2022-10-19T00:03:26.766Z,2.67
2022-10-19T00:05:29.025Z,2.53
2022-10-19T00:07:31.633Z,2.25
2022-10-19T00:09:34.063Z,2.58
2022-10-19T00:11:39.468Z,2.35
2022-10-19T00:13:44.481Z,2.05
2022-10-19T00:15:46.783Z,2.20
2022-10-19T00:17:49.085Z,2.50
2022-10-19T00:19:51.335Z,2.90
2022-10-19T00:21:53.810Z,3.00
2022-10-19T00:23:56.212Z,2.50
2022-10-19T00:25:59.055Z,2.40
2022-10-19T00:28:01.647Z,2.28
2022-10-19T00:30:07.656Z,2.42
2022-10-19T00:32:09.879Z,2.50
2022-10-19T00:34:12.233Z,2.20
2022-10-19T00:36:20.458Z,2.13
2022-10-19T00:38:22.802Z,2.50
2022-10-19T00:40:25.053Z,2.17
2022-10-19T00:42:27.418Z,2.47
2022-10-19T00:44:58.254Z,2.60
2022-10-19T00:47:07.181Z,2.65
2022-10-19T00:49:13.558Z,1.88
2022-10-19T00:51:15.841Z,2.10
2022-10-19T00:53:18.440Z,2.30
2022-10-19T00:55:20.910Z,2.40
2022-10-19T00:57:24.180Z,1.98
2022-10-19T00:59:28.221Z,2.20
2022-10-19T01:01:32.976Z,1.95
2022-10-19T01:03:38.511Z,2.30
2022-10-19T01:05:41.599Z,2.08
2022-10-19T01:07:44.022Z,2.10
2022-10-19T01:09:46.391Z,2.28
2022-10-19T01:11:58.263Z,2.15
2022-10-19T01:14:14.532Z,1.85
2022-10-19T01:16:24.157Z,2.10
2022-10-19T01:18:34.823Z,2.00
2022-10-19T01:21:10.032Z,2.20
2022-10-19T01:23:30.798Z,2.35
2022-10-19T01:25:49.785Z,2.03
2022-10-19T01:28:11.649Z,1.80
2022-10-19T01:30:23.628Z,2.00
2022-10-19T01:32:37.035Z,1.63
2022-10-19T01:34:47.697Z,1.83
2022-10-19T01:36:58.097Z,1.88
2022-10-19T01:39:05.695Z,1.60
2022-10-19T01:41:14.962Z,1.90
2022-10-19T01:43:24.143Z,1.80
2022-10-19T01:45:34.137Z,1.42
2022-10-19T01:47:42.592Z,1.73
2022-10-19T01:49:50.001Z,1.75
2022-10-19T01:51:56.189Z,1.80
2022-10-19T01:54:03.228Z,1.95
2022-10-19T01:56:06.955Z,1.70
2022-10-19T01:58:16.578Z,2.03
2022-10-19T02:00:21.442Z,1.70
2022-10-19T02:02:28.921Z,1.75
2022-10-19T02:04:33.578Z,2.08
2022-10-19T02:06:36.198Z,1.60
2022-10-19T02:08:41.998Z,1.88
2022-10-19T02:10:46.575Z,1.92
2022-10-19T02:12:49.224Z,1.73
2022-10-19T02:14:56.600Z,1.60
2022-10-19T02:17:03.322Z,1.85
2022-10-19T02:19:09.847Z,1.70
2022-10-19T02:21:12.777Z,2.03
2022-10-19T02:23:17.501Z,2.03
2022-10-19T02:25:20.513Z,2.20
2022-10-19T02:27:23.184Z,1.65
2022-10-19T02:29:25.627Z,2.17
2022-10-19T02:31:28.056Z,2.58
2022-10-19T02:33:31.000Z,1.83
2022-10-19T02:35:35.993Z,1.98
2022-10-19T02:37:38.433Z,2.60
2022-10-19T02:39:40.743Z,2.10
2022-10-19T02:41:48.285Z,2.00
2022-10-19T02:43:56.782Z,2.42
2022-10-19T02:46:02.880Z,1.70
2022-10-19T02:48:08.830Z,1.98
2022-10-19T02:50:12.326Z,1.92
2022-10-19T02:52:17.263Z,2.10
2022-10-19T02:54:19.492Z,2.47
2022-10-19T02:56:21.729Z,2.40
2022-10-19T02:58:23.981Z,2.10
2022-10-19T03:00:26.528Z,2.53
2022-10-19T03:02:29.625Z,2.58
2022-10-19T03:04:32.057Z,2.30
2022-10-19T03:06:34.389Z,2.80
2022-10-19T03:08:39.340Z,2.42
2022-10-19T03:10:41.604Z,2.10
2022-10-19T03:12:43.855Z,1.83
2022-10-19T03:14:46.143Z,2.00
2022-10-19T03:16:48.484Z,2.13
2022-10-19T03:18:51.444Z,2.33
2022-10-19T03:21:02.889Z,2.05
2022-10-19T03:23:05.128Z,1.70
2022-10-19T03:25:10.493Z,1.88
2022-10-19T03:27:12.775Z,2.20
2022-10-19T03:29:17.994Z,1.90
2022-10-19T03:31:20.545Z,2.05
2022-10-19T03:33:23.072Z,2.05
2022-10-19T03:35:25.501Z,2.35
2022-10-19T03:37:27.771Z,2.40
2022-10-19T03:39:30.076Z,1.95
2022-10-19T03:41:36.740Z,2.15
2022-10-19T03:43:41.999Z,2.65
2022-10-19T03:45:46.655Z,2.30
2022-10-19T03:47:49.764Z,2.00
2022-10-19T03:49:54.786Z,2.20
2022-10-19T03:51:57.057Z,1.85
2022-10-19T03:54:01.244Z,1.90
2022-10-19T03:56:06.043Z,2.15
2022-10-19T03:58:11.016Z,2.10
2022-10-19T04:00:14.577Z,2.30
2022-10-19T04:02:16.846Z,2.00
2022-10-19T04:04:20.894Z,1.80
2022-10-19T04:06:26.399Z,2.13
2022-10-19T04:08:28.729Z,2.38
2022-10-19T04:10:31.629Z,2.00
2022-10-19T04:12:34.254Z,1.90
2022-10-19T04:14:56.227Z,2.20
2022-10-19T04:16:59.468Z,2.00
2022-10-19T04:19:01.966Z,1.92
2022-10-19T04:21:06.036Z,2.00
2022-10-19T04:23:08.410Z,2.20
2022-10-19T04:25:12.444Z,2.22
2022-10-19T04:27:14.831Z,1.98
2022-10-19T04:29:23.720Z,2.08
2022-10-19T04:31:31.366Z,2.17
2022-10-19T04:33:34.716Z,2.45
2022-10-19T04:35:37.064Z,2.30
2022-10-19T04:37:39.355Z,2.88
2022-10-19T04:39:43.384Z,2.58
2022-10-19T04:41:45.669Z,2.17
2022-10-19T04:43:48.495Z,1.95
2022-10-19T04:45:50.707Z,2.60
2022-10-19T04:47:56.687Z,2.40
2022-10-19T04:49:58.909Z,2.10
2022-10-19T04:52:01.186Z,2.50
2022-10-19T04:54:03.770Z,3.05
2022-10-19T04:56:08.851Z,2.50
2022-10-19T04:58:11.054Z,3.05
2022-10-19T05:00:14.926Z,2.30
2022-10-19T05:02:17.319Z,2.70
2022-10-19T05:04:22.984Z,2.75
2022-10-19T05:06:25.820Z,2.10
2022-10-19T05:08:28.238Z,2.20
2022-10-19T05:10:30.811Z,2.20
2022-10-19T05:12:37.575Z,3.00
2022-10-19T05:14:42.847Z,2.63
2022-10-19T05:16:45.518Z,3.53
2022-10-19T05:18:52.775Z,2.60
2022-10-19T05:21:05.145Z,3.75
2022-10-19T05:23:08.668Z,2.80
2022-10-19T05:25:11.046Z,2.85
2022-10-19T05:27:13.306Z,2.75
2022-10-19T05:29:18.523Z,2.00
2022-10-19T05:31:21.252Z,2.65
2022-10-19T05:33:23.632Z,2.28
2022-10-19T05:35:26.206Z,2.38
2022-10-19T05:37:31.109Z,2.15
2022-10-19T05:39:33.449Z,2.70
2022-10-19T05:41:35.996Z,2.80
2022-10-19T05:43:39.200Z,2.53
2022-10-19T05:45:41.537Z,3.28
2022-10-19T05:47:43.797Z,2.83
2022-10-19T05:49:46.423Z,2.30
2022-10-19T05:51:50.837Z,2.75
2022-10-19T05:55:58.213Z,2.05
2022-10-19T05:58:00.476Z,2.53
2022-10-19T06:00:03.448Z,3.25
2022-10-19T06:02:06.462Z,3.45
2022-10-19T06:04:08.919Z,2.70
2022-10-19T06:06:12.325Z,2.53
2022-10-19T06:08:14.597Z,2.75
2022-10-19T06:10:21.048Z,2.60
2022-10-19T06:12:25.065Z,2.92
2022-10-19T06:16:30.965Z,2.45
2022-10-19T06:18:33.292Z,2.28
2022-10-19T06:20:35.715Z,2.60
2022-10-19T06:22:37.948Z,2.50
2022-10-19T06:24:40.165Z,2.55
2022-10-19T06:26:45.057Z,2.95
2022-10-19T06:28:47.938Z,2.60
2022-10-19T06:30:50.341Z,2.60
2022-10-19T06:32:53.570Z,2.50
2022-10-19T06:34:56.797Z,3.00
2022-10-19T06:36:59.092Z,3.58
2022-10-19T06:39:02.077Z,2.30
2022-10-19T06:41:04.652Z,2.58
2022-10-19T06:43:09.620Z,2.78
2022-10-19T06:45:11.968Z,2.80
2022-10-19T06:47:14.150Z,2.55
2022-10-19T06:49:16.478Z,2.50
2022-10-19T06:51:21.507Z,2.58
2022-10-19T06:53:23.849Z,2.90
2022-10-19T06:55:26.420Z,3.08
2022-10-19T06:57:28.886Z,2.42
2022-10-19T06:59:33.835Z,2.35
2022-10-19T07:01:36.102Z,1.77
2022-10-19T07:03:38.788Z,2.25
2022-10-19T07:05:41.085Z,1.98
2022-10-19T07:07:47.190Z,2.47
2022-10-19T07:09:49.620Z,2.05
2022-10-19T07:11:52.253Z,1.80
2022-10-19T07:13:54.933Z,2.20
2022-10-19T07:16:03.588Z,2.00
2022-10-19T07:18:05.906Z,2.65
2022-10-19T07:20:10.743Z,2.17
2022-10-19T07:22:17.340Z,2.22
2022-10-19T07:24:23.139Z,2.30
2022-10-19T07:26:28.257Z,2.58
2022-10-19T07:28:30.897Z,2.67
2022-10-19T07:30:33.475Z,2.30
2022-10-19T07:32:39.093Z,2.13
2022-10-19T07:34:44.716Z,2.35
2022-10-19T07:36:48.251Z,2.22
2022-10-19T07:38:50.936Z,2.20
2022-10-19T07:41:00.439Z,2.50
2022-10-19T07:43:02.913Z,2.03
2022-10-19T07:45:06.328Z,1.67
2022-10-19T07:47:08.717Z,1.95
2022-10-19T07:49:18.874Z,2.25
2022-10-19T07:51:22.811Z,1.95
2022-10-19T07:53:25.435Z,2.05
2022-10-19T07:55:27.750Z,2.78
2022-10-19T07:57:30.088Z,2.53
2022-10-19T07:59:32.441Z,2.17
2022-10-19T08:01:45.270Z,2.03
2022-10-19T08:06:16.414Z,1.88
2022-10-19T08:08:19.520Z,2.50
2022-10-19T08:10:21.871Z,2.88
2022-10-19T08:12:25.966Z,2.17
2022-10-19T08:14:28.484Z,3.00
2022-10-19T08:16:39.316Z,2.33
2022-10-19T08:18:41.630Z,1.98
2022-10-19T08:20:44.301Z,1.85
2022-10-19T08:22:49.201Z,2.00
2022-10-19T08:25:08.458Z,2.00
2022-10-19T08:29:21.904Z,2.42
2022-10-19T08:31:24.448Z,2.67
2022-10-19T08:33:26.978Z,2.35
2022-10-19T08:35:30.481Z,1.80
2022-10-19T08:37:44.380Z,2.30
2022-10-19T08:39:50.279Z,2.08
2022-10-19T08:42:03.356Z,2.13
2022-10-19T08:44:49.800Z,2.38
2022-10-19T08:47:01.401Z,2.10
2022-10-19T08:49:13.176Z,1.92
2022-10-19T08:51:15.594Z,1.90
2022-10-19T08:53:24.491Z,2.47
2022-10-19T08:55:41.532Z,2.35
2022-10-19T08:57:53.964Z,2.67
2022-10-19T09:00:01.960Z,2.00
2022-10-19T09:02:14.846Z,3.22
2022-10-19T09:04:23.275Z,1.85
2022-10-19T09:06:31.260Z,2.17
2022-10-19T09:08:36.885Z,1.80
2022-10-19T09:10:46.029Z,2.38
2022-10-19T09:12:58.398Z,2.08
2022-10-19T09:15:06.104Z,2.20
2022-10-19T09:17:14.489Z,2.40
2022-10-19T09:19:23.049Z,1.67
2022-10-19T09:21:47.020Z,2.03
2022-10-19T09:23:56.709Z,2.25
2022-10-19T09:26:02.269Z,2.00
2022-10-19T09:28:18.566Z,1.80
2022-10-19T09:30:23.465Z,2.05
2022-10-19T09:32:31.360Z,2.30
2022-10-19T09:34:37.179Z,2.13
2022-10-19T09:36:50.979Z,2.03
2022-10-19T09:38:53.506Z,2.10
2022-10-19T09:40:57.915Z,2.50
2022-10-19T09:43:19.293Z,2.10
2022-10-19T09:45:31.779Z,2.00
2022-10-19T09:47:39.167Z,2.10
2022-10-19T09:49:43.154Z,2.53
2022-10-19T09:51:50.589Z,2.38
2022-10-19T09:53:55.522Z,2.70
2022-10-19T09:56:00.583Z,2.40
2022-10-19T09:58:15.788Z,2.20
2022-10-19T10:00:19.610Z,2.50
2022-10-19T10:02:29.091Z,2.33
2022-10-19T10:04:32.480Z,2.30
2022-10-19T10:06:35.529Z,1.90
2022-10-19T10:08:45.164Z,2.50
2022-10-19T10:10:53.474Z,2.10
2022-10-19T10:12:57.764Z,2.05
2022-10-19T10:17:16.925Z,2.00
2022-10-19T10:19:20.812Z,2.35
2022-10-19T10:21:27.503Z,2.28
2022-10-19T10:25:36.204Z,2.20
2022-10-19T10:27:40.413Z,2.05
2022-10-19T10:32:04.624Z,1.73
2022-10-19T10:34:28.660Z,1.95
2022-10-19T10:36:39.953Z,2.20
2022-10-19T10:38:46.314Z,1.80
2022-10-19T10:40:55.548Z,2.30
2022-10-19T10:43:05.094Z,2.08
2022-10-19T10:45:19.321Z,2.05
2022-10-19T10:47:27.142Z,1.98
2022-10-19T10:49:34.207Z,1.90
2022-10-19T10:51:40.391Z,2.20
2022-10-19T10:53:43.650Z,1.85
2022-10-19T10:55:56.077Z,1.85
2022-10-19T10:58:11.139Z,2.20
2022-10-19T11:00:16.178Z,2.15
2022-10-19T11:02:35.626Z,1.95
2022-10-19T11:04:42.319Z,2.25
2022-10-19T11:06:54.186Z,2.60
2022-10-19T11:09:07.177Z,2.30
2022-10-19T11:11:17.411Z,1.83
2022-10-19T11:13:29.917Z,2.33
2022-10-19T11:15:37.173Z,2.10
2022-10-19T11:17:51.834Z,1.83
2022-10-19T11:19:54.633Z,2.30
2022-10-19T11:22:02.370Z,2.03
2022-10-19T11:24:15.227Z,2.17
2022-10-19T11:26:33.815Z,2.00
2022-10-19T11:28:50.141Z,2.20
2022-10-19T11:31:01.236Z,2.13
2022-10-19T11:33:15.027Z,2.00
2022-10-19T11:35:32.291Z,2.23
2022-10-19T11:37:49.371Z,1.67
2022-10-19T11:40:08.524Z,2.00
2022-10-19T11:42:17.777Z,2.38
2022-10-19T11:44:29.427Z,1.88
2022-10-19T11:46:39.592Z,2.20
2022-10-19T11:49:06.762Z,1.90
2022-10-19T11:51:21.493Z,2.60
2022-10-19T11:53:33.790Z,2.70
2022-10-19T11:55:42.319Z,2.20
2022-10-19T11:57:50.303Z,2.70
2022-10-19T12:00:14.358Z,2.17
2022-10-19T12:02:42.962Z,2.20
2022-10-19T12:04:57.129Z,1.75
2022-10-19T12:07:09.630Z,2.15
2022-10-19T12:09:28.436Z,1.80
2022-10-19T12:11:46.989Z,2.70
2022-10-19T12:14:02.135Z,2.10
2022-10-19T12:16:08.613Z,2.10
2022-10-19T12:18:18.489Z,1.80
2022-10-19T12:20:32.591Z,1.90
2022-10-19T12:22:37.777Z,2.03
2022-10-19T12:24:40.180Z,1.88
2022-10-19T12:26:45.795Z,2.05
2022-10-19T12:28:50.715Z,2.05
2022-10-19T12:30:53.729Z,2.20
2022-10-19T12:33:08.236Z,2.17
2022-10-19T12:35:24.101Z,2.40
2022-10-19T12:37:39.134Z,2.38
2022-10-19T12:39:49.887Z,2.38
2022-10-19T12:42:00.275Z,2.85
2022-10-19T12:44:20.284Z,2.45
2022-10-19T12:46:36.970Z,2.53
2022-10-19T12:48:39.580Z,2.28
2022-10-19T12:51:06.483Z,2.15
2022-10-19T12:53:23.607Z,2.17
2022-10-19T12:55:31.500Z,2.45
2022-10-19T12:57:34.192Z,2.47
2022-10-19T12:59:47.913Z,2.20
2022-10-19T13:01:52.475Z,2.63
2022-10-19T13:04:10.941Z,2.57
2022-10-19T13:06:18.518Z,2.08
2022-10-19T13:08:29.253Z,2.17
2022-10-19T13:10:33.367Z,2.28
2022-10-19T13:12:45.210Z,2.15
2022-10-19T13:14:49.056Z,2.08
2022-10-19T13:17:00.591Z,2.30
2022-10-19T13:19:17.114Z,2.10
2022-10-19T13:21:44.623Z,2.10
2022-10-19T13:23:49.831Z,2.65
2022-10-19T13:26:33.860Z,1.98
2022-10-19T13:28:38.412Z,2.67
2022-10-19T13:31:05.957Z,2.80
2022-10-19T13:33:43.020Z,2.60
2022-10-19T13:35:46.442Z,2.50
2022-10-19T13:38:30.938Z,2.03
2022-10-19T13:40:36.632Z,1.88
2022-10-19T13:42:41.720Z,2.28
2022-10-19T13:44:47.308Z,2.45
2022-10-19T13:46:57.682Z,2.70
2022-10-19T13:49:32.726Z,2.28
2022-10-19T13:51:45.226Z,2.30
2022-10-19T13:53:54.661Z,2.20
2022-10-19T13:56:27.474Z,2.03
2022-10-19T13:59:12.588Z,2.35
2022-10-19T14:01:27.419Z,2.35
2022-10-19T14:03:44.559Z,2.58
2022-10-19T14:06:07.779Z,5.70
2022-10-19T14:08:23.923Z,2.72
2022-10-19T14:10:32.773Z,2.22
2022-10-19T14:12:40.036Z,2.00
2022-10-19T14:14:48.346Z,2.15
2022-10-19T14:16:58.306Z,2.17
2022-10-19T14:19:12.305Z,2.10
2022-10-19T14:21:29.455Z,2.13
2022-10-19T14:23:34.309Z,2.28
2022-10-19T14:25:37.754Z,2.25
2022-10-19T14:27:40.312Z,2.25
2022-10-19T14:29:51.526Z,2.53
2022-10-19T14:31:58.569Z,1.90
2022-10-19T14:34:04.110Z,1.90
2022-10-19T14:36:08.040Z,2.10
2022-10-19T14:38:20.457Z,1.90
2022-10-19T14:40:28.088Z,2.17
2022-10-19T14:42:42.665Z,2.30
2022-10-19T14:44:47.649Z,2.05
2022-10-19T14:46:50.063Z,2.50
2022-10-19T14:48:52.503Z,2.78
2022-10-19T14:50:57.901Z,2.85
2022-10-19T14:53:05.075Z,2.90
2022-10-19T14:55:14.038Z,2.60
2022-10-19T14:57:29.381Z,2.75
2022-10-19T14:59:35.238Z,2.88
2022-10-19T15:01:41.287Z,3.75
2022-10-19T15:03:45.947Z,3.35
2022-10-19T15:05:50.939Z,2.97
2022-10-19T15:07:54.802Z,3.03
2022-10-19T15:09:59.790Z,2.90
2022-10-19T15:12:07.098Z,3.90
2022-10-19T15:14:14.966Z,3.25
2022-10-19T15:16:44.803Z,3.30
2022-10-19T15:18:49.974Z,3.70
2022-10-19T15:21:12.136Z,3.80
2022-10-19T15:23:41.533Z,3.40
2022-10-19T15:25:43.804Z,3.60
2022-10-19T15:27:49.100Z,3.83
2022-10-19T15:30:02.132Z,4.07
2022-10-19T15:32:21.687Z,4.15
2022-10-19T15:34:28.284Z,4.78
2022-10-19T15:36:32.898Z,4.07
2022-10-19T15:38:35.777Z,4.70
2022-10-19T15:40:39.794Z,4.55
2022-10-19T15:42:44.518Z,5.38
2022-10-19T15:44:46.851Z,5.22
2022-10-19T15:47:19.197Z,5.72
2022-10-19T15:49:51.217Z,4.82
2022-10-19T15:51:53.417Z,4.72
2022-10-19T15:53:57.250Z,5.05
2022-10-19T15:55:59.625Z,5.80
2022-10-19T15:58:02.311Z,4.82
2022-10-19T16:00:12.974Z,4.88
2022-10-19T16:02:18.028Z,5.75
2022-10-19T16:04:20.405Z,4.90
2022-10-19T16:06:25.505Z,5.30
2022-10-19T16:08:28.007Z,5.93
2022-10-19T16:10:30.304Z,5.75
2022-10-19T16:12:33.031Z,5.45
2022-10-19T16:14:36.772Z,5.68
2022-10-19T16:16:39.274Z,6.32
2022-10-19T16:18:44.165Z,5.68
2022-10-19T16:20:46.613Z,5.68
2022-10-19T16:22:50.132Z,6.70
2022-10-19T16:24:52.506Z,6.38
2022-10-19T16:26:57.598Z,5.93
2022-10-19T16:29:01.348Z,5.78
2022-10-19T16:31:03.652Z,5.95
2022-10-19T16:33:05.981Z,5.90
2022-10-19T16:35:11.733Z,6.20
2022-10-19T16:37:14.443Z,6.95
2022-10-19T16:39:16.835Z,6.85
2022-10-19T16:41:19.092Z,6.35
2022-10-19T16:43:21.466Z,6.10
2022-10-19T16:45:23.723Z,7.05
2022-10-19T16:47:26.388Z,7.05
2022-10-19T16:49:28.937Z,7.40
2022-10-19T16:51:37.358Z,7.50
2022-10-19T16:53:39.624Z,7.85
2022-10-19T16:55:42.055Z,7.78
2022-10-19T16:57:45.218Z,7.53
2022-10-19T16:59:50.784Z,7.25
2022-10-19T17:01:53.895Z,7.50
2022-10-19T17:03:57.193Z,7.13
2022-10-19T17:06:03.312Z,7.65
2022-10-19T17:08:09.304Z,6.93
2022-10-19T17:10:11.745Z,7.22
2022-10-19T17:12:14.792Z,7.93
2022-10-19T17:14:17.071Z,6.97
2022-10-19T17:16:21.776Z,6.50
2022-10-19T17:18:24.234Z,6.88
2022-10-19T17:20:26.834Z,6.35
2022-10-19T17:22:33.035Z,6.22
2022-10-19T17:24:39.328Z,5.80
2022-10-19T17:26:43.105Z,5.82
2022-10-19T17:28:45.509Z,5.72
2022-10-19T17:30:49.117Z,5.55
2022-10-19T17:32:51.381Z,5.65
2022-10-19T17:34:54.217Z,5.28
2022-10-19T17:36:56.536Z,4.78
2022-10-19T17:39:00.504Z,5.68
2022-10-19T17:41:07.875Z,5.00
2022-10-19T17:43:10.834Z,4.43
2022-10-19T17:45:13.039Z,4.07
2022-10-19T17:47:15.257Z,3.67
2022-10-19T17:49:18.842Z,4.30
2022-10-19T17:51:27.221Z,3.88
2022-10-19T17:53:30.758Z,3.38
2022-10-19T17:55:37.074Z,3.50
2022-10-19T17:57:42.032Z,2.90
2022-10-19T17:59:52.550Z,3.75
2022-10-19T18:01:55.571Z,3.47
2022-10-19T18:03:57.990Z,2.90
2022-10-19T18:06:04.602Z,3.22
2022-10-19T18:08:09.232Z,3.08
2022-10-19T18:10:11.795Z,3.33
2022-10-19T18:12:14.267Z,2.83
2022-10-19T18:14:19.122Z,3.42
2022-10-19T18:16:24.762Z,2.83
2022-10-19T18:18:28.213Z,2.90
2022-10-19T18:20:30.487Z,2.57
2022-10-19T18:22:32.920Z,3.28
2022-10-19T18:24:35.271Z,2.72
2022-10-19T18:26:38.832Z,2.88
2022-10-19T18:28:41.490Z,2.70
2022-10-19T18:30:46.534Z,3.20
2022-10-19T18:32:49.810Z,4.15
2022-10-19T18:34:52.180Z,3.40
2022-10-19T18:36:55.030Z,3.40
2022-10-19T18:38:59.955Z,3.30
2022-10-19T18:41:02.690Z,3.45
2022-10-19T18:43:05.660Z,3.03
2022-10-19T18:45:09.424Z,3.20
2022-10-19T18:47:14.474Z,3.08
2022-10-19T18:49:17.749Z,3.50
2022-10-19T18:51:21.711Z,3.30
2022-10-19T18:53:24.287Z,3.28
2022-10-19T18:55:26.582Z,3.42
2022-10-19T18:57:31.710Z,3.50
2022-10-19T18:59:37.166Z,3.63
2022-10-19T19:01:39.705Z,3.22
2022-10-19T19:03:46.255Z,3.80
2022-10-19T19:05:58.363Z,3.40
2022-10-19T19:08:01.247Z,3.17
2022-10-19T19:10:03.966Z,3.33
2022-10-19T19:12:06.281Z,3.17
2022-10-19T19:14:12.602Z,3.30
2022-10-19T19:16:14.983Z,3.15
2022-10-19T19:20:45.220Z,3.28
2022-10-19T19:22:47.456Z,3.40
2022-10-19T19:24:50.528Z,4.10
2022-10-19T19:26:54.841Z,3.30
2022-10-19T19:31:00.370Z,3.80
2022-10-19T19:33:02.658Z,3.50
2022-10-19T19:35:06.016Z,3.33
2022-10-19T19:37:13.172Z,3.00
2022-10-19T19:39:16.750Z,3.20
2022-10-19T19:41:19.536Z,3.25
2022-10-19T19:43:21.889Z,3.60
2022-10-19T19:45:24.108Z,3.55
2022-10-19T19:47:28.903Z,3.28
2022-10-19T19:49:31.203Z,3.33
2022-10-19T19:51:33.974Z,3.63
2022-10-19T19:53:39.245Z,3.17
2022-10-19T19:55:41.506Z,4.15
2022-10-19T19:57:43.847Z,4.00
2022-10-19T19:59:46.163Z,4.35
2022-10-19T20:01:48.506Z,3.80
2022-10-19T20:03:50.960Z,3.97
2022-10-19T20:05:53.243Z,4.10
2022-10-19T20:07:55.685Z,3.70
2022-10-19T20:10:00.568Z,3.95
2022-10-19T20:12:02.816Z,4.10
2022-10-19T20:14:05.138Z,4.57
2022-10-19T20:16:08.893Z,3.63
2022-10-19T20:18:11.405Z,4.30
2022-10-19T20:20:17.944Z,4.93
2022-10-19T20:24:22.751Z,4.75
2022-10-19T20:26:28.604Z,3.92
2022-10-19T20:28:33.221Z,4.38
2022-10-19T20:30:35.804Z,4.18
2022-10-19T20:32:38.453Z,3.95
2022-10-19T20:34:41.115Z,4.07
2022-10-19T20:36:43.614Z,3.75
2022-10-19T20:38:47.899Z,4.30
2022-10-19T20:42:57.717Z,4.40
2022-10-19T20:45:00.101Z,4.45
2022-10-19T20:47:02.418Z,4.63
2022-10-19T20:49:05.434Z,4.25
2022-10-19T20:51:12.689Z,3.90
2022-10-19T20:53:14.944Z,4.53
2022-10-19T20:55:17.829Z,4.53
2022-10-19T20:57:20.171Z,4.53
2022-10-19T20:59:28.014Z,4.43
2022-10-19T21:01:32.712Z,4.55
2022-10-19T21:03:35.982Z,4.40
2022-10-19T21:05:38.918Z,5.10
2022-10-19T21:07:41.232Z,4.80
2022-10-19T21:09:43.592Z,4.75
2022-10-19T21:11:47.364Z,4.82
2022-10-19T21:13:53.334Z,4.85
2022-10-19T21:15:58.216Z,5.30
2022-10-19T21:18:03.242Z,5.22
2022-10-19T21:20:06.871Z,5.43
2022-10-19T21:22:14.028Z,5.50
2022-10-19T21:24:19.227Z,5.47
2022-10-19T21:26:21.684Z,5.57
2022-10-19T21:28:24.057Z,5.40
2022-10-19T21:30:27.970Z,5.38
2022-10-19T21:32:32.860Z,5.60
2022-10-19T21:34:35.459Z,5.22
2022-10-19T21:36:40.730Z,5.30
2022-10-19T21:38:43.633Z,5.28
2022-10-19T21:40:45.866Z,5.85
2022-10-19T21:42:48.077Z,5.13
2022-10-19T21:44:54.054Z,6.00
2022-10-19T21:47:03.418Z,5.82
2022-10-19T21:49:10.166Z,5.45
2022-10-19T21:51:20.747Z,5.15
2022-10-19T21:53:26.009Z,5.22
2022-10-19T21:55:30.149Z,5.50
2022-10-19T21:57:32.693Z,5.57
2022-10-19T21:59:35.246Z,4.95
2022-10-19T22:01:40.371Z,5.28
2022-10-19T22:03:43.969Z,5.43
2022-10-19T22:05:54.910Z,4.75
2022-10-19T22:07:57.175Z,4.57
2022-10-19T22:10:17.838Z,5.40
2022-10-19T22:12:28.543Z,4.75
2022-10-19T22:14:31.155Z,5.15
2022-10-19T22:16:37.045Z,5.55
2022-10-19T22:18:40.543Z,4.90
2022-10-19T22:20:42.774Z,4.80
2022-10-19T22:22:50.366Z,4.63
2022-10-19T22:24:55.067Z,5.03
2022-10-19T22:26:57.327Z,4.68
2022-10-19T22:29:00.896Z,4.68
2022-10-19T22:31:05.646Z,5.05
2022-10-19T22:33:08.331Z,4.55
2022-10-19T22:35:10.539Z,4.85
2022-10-19T22:37:12.801Z,4.57
2022-10-19T22:39:17.726Z,5.40
2022-10-19T22:42:07.506Z,5.35
2022-10-19T22:44:09.842Z,5.47
2022-10-19T22:46:12.063Z,5.63
2022-10-19T22:48:14.356Z,5.47
2022-10-19T22:50:17.240Z,5.38
2022-10-19T22:52:23.671Z,5.53
2022-10-19T22:54:28.605Z,5.65
2022-10-19T22:56:31.302Z,5.55
2022-10-19T22:58:33.636Z,5.10
2022-10-19T23:00:36.418Z,5.43
2022-10-19T23:02:38.762Z,5.18
2022-10-19T23:04:41.164Z,5.18
2022-10-19T23:06:43.421Z,5.53
2022-10-19T23:08:46.134Z,5.30
2022-10-19T23:10:51.126Z,5.22
2022-10-19T23:12:54.568Z,5.55
2022-10-19T23:14:56.819Z,4.80
2022-10-19T23:16:59.259Z,5.65
2022-10-19T23:19:01.653Z,5.85
2022-10-19T23:21:06.214Z,5.38
2022-10-19T23:23:09.952Z,5.18
2022-10-19T23:25:12.238Z,5.40
2022-10-19T23:27:17.072Z,5.45
2022-10-19T23:29:19.439Z,5.57
2022-10-19T23:31:24.853Z,5.30
2022-10-19T23:33:27.217Z,5.55
2022-10-19T23:35:29.518Z,5.57
2022-10-19T23:37:34.457Z,5.22
2022-10-19T23:39:37.225Z,5.70
2022-10-19T23:41:39.532Z,5.70
2022-10-19T23:43:45.066Z,5.78
2022-10-19T23:45:47.397Z,5.90
2022-10-19T23:47:49.595Z,6.20
2022-10-19T23:49:51.890Z,6.07
2022-10-19T23:51:54.159Z,5.70
2022-10-19T23:53:56.691Z,5.80
2022-10-19T23:55:59.652Z,6.07
2022-10-19T23:58:01.955Z,5.55
